Time;durP1;ratioP1;P1;durP2;ratioP2;P2;SDS_P1;SDS_P2;PMS_P1;PMS_P2;Temp;Humidity;BMP_temperature;BMP_pressure;BME280_temperature;BME280_humidity;BME280_pressure;Samples;Min_cycle;Max_cycle;Signal;HPM_P1;HPM_P2
2023/09/10 00:00:18;;;;;;;;;;;;;;;16.70;100.00;101690.25;5033312;28;19936;-74
2023/09/10 00:02:44;;;;;;;;;;;;;;;16.71;100.00;101684.72;5019943;28;19959;-74
2023/09/10 00:05:09;;;;;;;;;;;;;;;16.70;100.00;101688.41;5032643;28;20306;-74
2023/09/10 00:07:34;;;;;;;;;;;;;;;16.70;100.00;101688.41;5028424;28;20104;-74
2023/09/10 00:09:59;;;;;;;;;;;;;;;16.72;100.00;101685.56;5033732;28;19967;-74
2023/09/10 00:12:25;;;;;;;;;;;;;;;16.71;100.00;101683.84;5023471;28;19921;-73
2023/09/10 00:14:50;;;;;;;;;;;;;;;16.70;100.00;101680.28;5023884;28;19920;-74
2023/09/10 00:17:15;;;;;;;;;;;;;;;16.71;100.00;101679.28;5004687;28;19925;-74
2023/09/10 00:19:40;;;;;;;;;;;;;;;16.69;100.00;101681.28;5031294;28;19962;-74
2023/09/10 00:22:05;;;;;;;;;;;;;;;16.66;100.00;101684.25;5036055;28;19929;-73
2023/09/10 00:24:31;;;;;;;;;;;;;;;16.64;100.00;101683.53;5022499;28;19920;-74
2023/09/10 00:26:56;;;;;;;;;;;;;;;16.60;100.00;101677.56;5021482;28;19913;-74
2023/09/10 00:29:21;;;;;;;;;;;;;;;16.59;100.00;101674.97;5023479;28;19943;-74
2023/09/10 00:31:46;;;;;;;;;;;;;;;16.61;100.00;101681.09;5005679;28;20296;-74
2023/09/10 00:34:12;;;;;;;;;;;;;;;16.61;100.00;101676.56;5020268;28;19921;-74
2023/09/10 00:36:38;;;;;;;;;;;;;;;16.64;100.00;101681.72;5002813;28;19924;-74
2023/09/10 00:39:03;;;;;;;;;;;;;;;16.61;100.00;101671.13;5033962;28;19920;-73
2023/09/10 00:41:28;;;;;;;;;;;;;;;16.61;100.00;101676.56;5010430;28;19917;-74
2023/09/10 00:43:53;;;;;;;;;;;;;;;16.58;100.00;101670.53;5019628;28;19958;-74
2023/09/10 00:46:19;;;;;;;;;;;;;;;16.57;100.00;101668.81;5032930;28;20053;-74
2023/09/10 00:48:44;;;;;;;;;;;;;;;16.46;100.00;101653.53;5011735;28;19920;-74
2023/09/10 00:51:09;;;;;;;;;;;;;;;16.55;100.00;101668.97;5032635;28;19946;-74
2023/09/10 00:53:34;;;;;;;;;;;;;;;16.57;100.00;101671.53;5011686;28;19924;-73
2023/09/10 00:56:00;;;;;;;;;;;;;;;16.57;100.00;101669.69;5011898;28;19963;-74
2023/09/10 00:58:25;;;;;;;;;;;;;;;16.55;100.00;101673.56;5015552;28;20039;-74
2023/09/10 01:00:50;;;;;;;;;;;;;;;16.50;100.00;101676.66;5030434;28;20364;-73
2023/09/10 01:03:15;;;;;;;;;;;;;;;16.50;100.00;101673.94;5018071;28;20127;-73
2023/09/10 01:05:40;;;;;;;;;;;;;;;16.47;100.00;101675.09;5030087;28;19954;-74
2023/09/10 01:08:06;;;;;;;;;;;;;;;16.46;100.00;101673.38;5011867;28;20106;-73
2023/09/10 01:10:46;;;;;;;;;;;;;;;16.44;100.00;101672.66;5015853;28;19999;-74
2023/09/10 01:13:13;;;;;;;;;;;;;;;16.52;100.00;101674.66;5030413;28;20390;-74
2023/09/10 01:15:43;;;;;;;;;;;;;;;16.56;100.00;101683.38;5032778;28;19916;-73
2023/09/10 01:18:12;;;;;;;;;;;;;;;16.57;100.00;101679.66;5020626;28;19960;-74
2023/09/10 01:20:44;;;;;;;;;;;;;;;16.59;100.00;101688.53;5029018;28;20378;-74
2023/09/10 01:23:28;;;;;;;;;;;;;;;16.63;100.00;101690.84;5018534;28;19921;-74
2023/09/10 01:25:53;;;;;;;;;;;;;;;16.67;100.00;101685.97;5028361;28;19917;-74
2023/09/10 01:28:19;;;;;;;;;;;;;;;16.68;100.00;101681.44;5031984;28;19924;-74
2023/09/10 01:30:44;;;;;;;;;;;;;;;16.62;100.00;101681.00;5016173;28;20074;-74
2023/09/10 01:33:14;;;;;;;;;;;;;;;16.60;100.00;101684.81;5027468;28;20282;-73
2023/09/10 01:35:53;;;;;;;;;;;;;;;16.58;100.00;101681.38;5027992;28;19928;-74
2023/09/10 01:38:37;;;;;;;;;;;;;;;16.55;100.00;101679.81;5017691;28;20168;-74
2023/09/10 01:41:03;;;;;;;;;;;;;;;16.55;100.00;101682.53;5034263;28;19948;-74
2023/09/10 01:43:29;;;;;;;;;;;;;;;16.52;100.00;101681.97;5033322;28;19921;-73
2023/09/10 01:45:54;;;;;;;;;;;;;;;16.52;100.00;101688.22;5018056;28;20355;-74
2023/09/10 01:48:19;;;;;;;;;;;;;;;16.49;100.00;101683.06;5009799;28;20290;-74
2023/09/10 01:50:44;;;;;;;;;;;;;;;16.46;100.00;101686.06;5014835;28;19932;-74
2023/09/10 01:53:10;;;;;;;;;;;;;;;16.41;100.00;101686.47;5007299;28;19963;-74
2023/09/10 01:55:35;;;;;;;;;;;;;;;16.38;100.00;101683.19;5015590;28;20130;-74
2023/09/10 01:58:00;;;;;;;;;;;;;;;16.37;100.00;101686.91;5030595;28;19925;-74
2023/09/10 02:00:26;;;;;;;;;;;;;;;16.33;100.00;101689.00;4995459;28;19962;-74
2023/09/10 02:02:51;;;;;;;;;;;;;;;16.35;100.00;101692.44;4997684;28;20257;-74
2023/09/10 02:05:16;;;;;;;;;;;;;;;16.14;100.00;101654.59;5012572;28;19959;-74
2023/09/10 02:07:41;;;;;;;;;;;;;;;16.40;100.00;101690.19;5025144;28;19954;-73
2023/09/10 02:10:07;;;;;;;;;;;;;;;16.38;100.00;101691.31;5032857;28;19924;-74
2023/09/10 02:12:33;;;;;;;;;;;;;;;16.43;100.00;101687.19;5011727;28;19920;-74
2023/09/10 02:14:59;;;;;;;;;;;;;;;16.43;100.00;101684.50;4997622;28;19961;-74
2023/09/10 02:17:24;;;;;;;;;;;;;;;16.43;100.00;101684.50;5014879;28;20320;-74
2023/09/10 02:19:49;;;;;;;;;;;;;;;16.45;100.00;101693.34;5033878;28;19972;-74
2023/09/10 02:22:14;;;;;;;;;;;;;;;16.45;100.00;101687.91;5014252;28;20028;-74
2023/09/10 02:24:40;;;;;;;;;;;;;;;16.41;100.00;101691.06;5026849;28;19935;-74
2023/09/10 02:27:05;;;;;;;;;;;;;;;16.37;100.00;101693.16;5030024;28;20284;-74
2023/09/10 02:29:30;;;;;;;;;;;;;;;16.38;100.00;101694.88;5026105;28;19920;-74
2023/09/10 02:31:55;;;;;;;;;;;;;;;16.39;100.00;101690.34;5014223;28;19921;-73
2023/09/10 02:34:20;;;;;;;;;;;;;;;16.39;100.00;101693.88;5031255;28;19931;-74
2023/09/10 02:36:46;;;;;;;;;;;;;;;16.43;100.00;101694.47;5032105;28;19963;-74
2023/09/10 02:39:11;;;;;;;;;;;;;;;16.45;100.00;101695.19;5027708;28;20423;-74
2023/09/10 02:41:36;;;;;;;;;;;;;;;16.45;100.00;101685.22;5030745;28;19994;-74
2023/09/10 02:44:01;;;;;;;;;;;;;;;16.44;100.00;101688.91;5009861;28;20401;-74
2023/09/10 02:46:27;;;;;;;;;;;;;;;16.40;100.00;101687.47;4996638;28;20464;-73
2023/09/10 02:48:53;;;;;;;;;;;;;;;16.41;100.00;101680.22;5013424;28;20055;-73
2023/09/10 02:51:18;;;;;;;;;;;;;;;16.43;100.00;101689.03;5014241;28;20355;-74
2023/09/10 02:53:43;;;;;;;;;;;;;;;16.45;100.00;101689.75;5033694;28;20516;-74
2023/09/10 02:56:08;;;;;;;;;;;;;;;16.46;100.00;101694.19;5013774;28;20429;-74
2023/09/10 02:58:34;;;;;;;;;;;;;;;16.41;100.00;101691.06;5013825;28;19949;-73
2023/09/10 03:01:03;;;;;;;;;;;;;;;16.41;100.00;101696.47;5025477;28;19980;-74
2023/09/10 03:03:28;;;;;;;;;;;;;;;16.40;100.00;101692.91;5031308;28;19993;-74
2023/09/10 03:05:54;;;;;;;;;;;;;;;16.35;100.00;101687.03;5012824;28;19972;-74
2023/09/10 03:08:19;;;;;;;;;;;;;;;16.39;100.00;101695.75;5008400;28;20433;-73
2023/09/10 03:10:44;;;;;;;;;;;;;;;16.34;100.00;101694.31;5025757;28;20449;-74
2023/09/10 03:13:09;;;;;;;;;;;;;;;16.28;100.00;101686.72;5014006;28;20035;-74
2023/09/10 03:15:34;;;;;;;;;;;;;;;16.28;100.00;101696.72;5015200;28;19917;-74
2023/09/10 03:18:00;;;;;;;;;;;;;;;16.30;100.00;101690.16;5013300;28;19921;-74
2023/09/10 03:20:25;;;;;;;;;;;;;;;16.30;100.00;101695.56;5012047;28;19964;-73
2023/09/10 03:22:51;;;;;;;;;;;;;;;16.32;100.00;101688.16;5026688;28;20403;-74
2023/09/10 03:25:16;;;;;;;;;;;;;;;16.37;100.00;101695.88;5025962;28;19968;-74
2023/09/10 03:27:42;;;;;;;;;;;;;;;16.42;100.00;101696.31;4998861;28;20645;-74
2023/09/10 03:30:07;;;;;;;;;;;;;;;16.38;100.00;101694.88;5037792;28;20673;-74
2023/09/10 03:32:32;;;;;;;;;;;;;;;16.31;100.00;101689.16;5027655;28;20378;-74
2023/09/10 03:34:57;;;;;;;;;;;;;;;16.31;100.00;101689.16;5004032;28;19931;-74
2023/09/10 03:37:23;;;;;;;;;;;;;;;16.28;100.00;101692.13;5020401;28;19944;-74
2023/09/10 03:39:48;;;;;;;;;;;;;;;16.26;100.00;101685.16;5016971;28;20059;-74
2023/09/10 03:42:13;;;;;;;;;;;;;;;16.23;100.00;101688.97;5017722;28;19917;-74
2023/09/10 03:44:38;;;;;;;;;;;;;;;16.24;100.00;101685.28;5017239;28;19998;-74
2023/09/10 03:47:04;;;;;;;;;;;;;;;16.24;100.00;101681.72;5015997;28;19955;-73
2023/09/10 03:49:29;;;;;;;;;;;;;;;16.21;100.00;101681.97;5044411;28;20023;-74
2023/09/10 03:51:56;;;;;;;;;;;;;;;16.22;100.00;101686.41;5017761;28;20023;-74
2023/09/10 03:54:21;;;;;;;;;;;;;;;16.23;100.00;101683.56;5015781;28;20280;-74
2023/09/10 03:56:46;;;;;;;;;;;;;;;16.26;100.00;101687.84;5017607;28;20396;-73
2023/09/10 03:59:11;;;;;;;;;;;;;;;16.16;100.00;101671.53;5012720;28;19924;-74
2023/09/10 04:01:37;;;;;;;;;;;;;;;16.25;100.00;101686.16;5028849;28;19964;-74
2023/09/10 04:04:05;;;;;;;;;;;;;;;16.33;100.00;101686.28;5013948;28;20015;-74
2023/09/10 04:06:30;;;;;;;;;;;;;;;16.39;100.00;101680.34;5025126;28;19943;-74
2023/09/10 04:08:56;;;;;;;;;;;;;;;16.40;100.00;101681.22;5013911;28;20371;-74
2023/09/10 04:11:21;;;;;;;;;;;;;;;16.49;100.00;101678.53;5027429;28;20232;-74
2023/09/10 04:13:46;;;;;;;;;;;;;;;16.47;100.00;101677.81;5013549;28;19976;-74
2023/09/10 04:16:11;;;;;;;;;;;;;;;16.49;100.00;101683.94;5028074;28;19944;-74
2023/09/10 04:18:37;;;;;;;;;;;;;;;16.49;100.00;101681.25;5026327;28;20007;-74
2023/09/10 04:21:04;;;;;;;;;;;;;;;16.54;100.00;101679.97;5029459;28;20370;-73
2023/09/10 04:23:29;;;;;;;;;;;;;;;16.62;100.00;101677.41;5035867;28;19925;-74
2023/09/10 04:25:54;;;;;;;;;;;;;;;16.60;100.00;101677.56;5030902;28;19916;-74
2023/09/10 04:28:19;;;;;;;;;;;;;;;16.57;100.00;101677.81;5033724;28;19927;-74
2023/09/10 04:30:44;;;;;;;;;;;;;;;16.64;100.00;101680.84;5013839;28;19928;-74
2023/09/10 04:33:11;;;;;;;;;;;;;;;16.70;100.00;101683.00;5047258;28;19917;-74
2023/09/10 04:35:37;;;;;;;;;;;;;;;16.74;100.00;101680.84;5022937;28;19920;-74
2023/09/10 04:38:02;;;;;;;;;;;;;;;16.94;100.00;101679.03;5034389;28;19942;-74
2023/09/10 04:40:27;;;;;;;;;;;;;;;17.12;100.00;101679.22;5033687;28;19947;-75
2023/09/10 04:42:53;;;;;;;;;;;;;;;17.09;100.00;101683.06;5024980;28;19965;-74
2023/09/10 04:45:18;;;;;;;;;;;;;;;17.29;100.00;101683.09;5034615;28;20187;-74
2023/09/10 04:47:43;;;;;;;;;;;;;;;17.41;100.00;101681.09;5034320;28;20290;-74
2023/09/10 04:50:08;;;;;;;;;;;;;;;17.50;100.00;101676.63;5015140;28;20286;-74
2023/09/10 04:52:34;;;;;;;;;;;;;;;17.48;100.00;101679.47;5017016;28;20371;-74
2023/09/10 04:54:59;;;;;;;;;;;;;;;17.51;100.00;101681.91;5029671;28;19948;-74
2023/09/10 04:57:25;;;;;;;;;;;;;;;17.58;100.00;101687.66;5014518;28;20442;-74
2023/09/10 04:59:50;;;;;;;;;;;;;;;17.52;100.00;101685.50;5027491;28;20354;-74
2023/09/10 05:02:15;;;;;;;;;;;;;;;17.45;100.00;101685.22;5029913;28;20286;-74
2023/09/10 05:04:41;;;;;;;;;;;;;;;17.44;100.00;101690.78;5031563;28;19943;-74
2023/09/10 05:07:06;;;;;;;;;;;;;;;17.41;100.00;101685.63;5032025;28;19920;-74
2023/09/10 05:09:31;;;;;;;;;;;;;;;17.38;100.00;101676.78;5010568;28;19924;-75
2023/09/10 05:11:57;;;;;;;;;;;;;;;17.37;100.00;101685.09;5030697;28;19921;-75
2023/09/10 05:14:22;;;;;;;;;;;;;;;17.43;100.00;101680.94;5032779;28;19928;-74
2023/09/10 05:16:47;;;;;;;;;;;;;;;17.43;100.00;101689.06;5026440;28;19925;-74
2023/09/10 05:19:12;;;;;;;;;;;;;;;17.46;100.00;101691.50;5029982;28;19967;-74
2023/09/10 05:21:38;;;;;;;;;;;;;;;17.48;100.00;101693.06;5025961;28;20063;-74
2023/09/10 05:24:03;;;;;;;;;;;;;;;17.43;100.00;101691.78;5035074;28;19924;-74
2023/09/10 05:26:28;;;;;;;;;;;;;;;17.38;100.00;101695.78;5014910;28;19920;-74
2023/09/10 05:28:53;;;;;;;;;;;;;;;17.32;100.00;101700.94;5031949;28;20255;-74
2023/09/10 05:31:19;;;;;;;;;;;;;;;17.31;100.00;101699.22;5033070;28;19958;-74
2023/09/10 05:33:44;;;;;;;;;;;;;;;17.33;100.00;101703.53;5024749;28;19927;-74
2023/09/10 05:36:09;;;;;;;;;;;;;;;17.27;100.00;101701.38;5035625;28;19920;-75
2023/09/10 05:38:34;;;;;;;;;;;;;;;17.28;100.00;101696.78;5032039;28;19924;-74
2023/09/10 05:41:03;;;;;;;;;;;;;;;17.30;100.00;101702.94;5033356;28;20983;-74
2023/09/10 05:43:31;;;;;;;;;;;;;;;17.33;100.00;101700.81;5031968;28;19921;-74
2023/09/10 05:45:56;;;;;;;;;;;;;;;17.29;100.00;101702.09;5017243;28;19921;-74
2023/09/10 05:48:22;;;;;;;;;;;;;;;17.33;100.00;101702.66;5006774;28;19968;-75
2023/09/10 05:50:47;;;;;;;;;;;;;;;17.39;100.00;101696.66;5014258;28;19920;-74
2023/09/10 05:53:12;;;;;;;;;;;;;;;17.52;100.00;101705.34;5030795;28;19927;-74
2023/09/10 05:55:38;;;;;;;;;;;;;;;17.63;100.00;101707.03;4999806;28;19959;-74
2023/09/10 05:58:04;;;;;;;;;;;;;;;17.86;100.00;101709.47;5015973;28;19960;-74
2023/09/10 06:00:29;;;;;;;;;;;;;;;17.95;100.00;101707.72;5033006;28;19925;-75
2023/09/10 06:02:54;;;;;;;;;;;;;;;18.05;100.00;101711.28;5015557;28;19920;-74
2023/09/10 06:05:19;;;;;;;;;;;;;;;18.24;100.00;101709.53;5019981;28;19916;-74
2023/09/10 06:07:44;;;;;;;;;;;;;;;18.25;100.00;101694.94;5010823;28;19927;-75
2023/09/10 06:10:10;;;;;;;;;;;;;;;18.51;100.00;101716.81;5024022;28;19933;-74
2023/09/10 06:12:36;;;;;;;;;;;;;;;18.60;100.00;101725.94;5011544;28;19921;-74
2023/09/10 06:15:02;;;;;;;;;;;;;;;18.70;100.00;101715.88;5027025;28;19920;-73
2023/09/10 06:17:27;;;;;;;;;;;;;;;18.88;100.00;101724.09;5012758;28;19927;-74
2023/09/10 06:19:52;;;;;;;;;;;;;;;19.01;100.00;101725.59;5016338;28;20011;-74
2023/09/10 06:22:17;;;;;;;;;;;;;;;19.10;100.00;101721.09;5015143;28;19925;-74
2023/09/10 06:24:42;;;;;;;;;;;;;;;19.23;100.00;101720.69;4998505;28;19924;-73
2023/09/10 06:27:08;;;;;;;;;;;;;;;19.26;100.00;101720.38;5025381;28;19927;-74
2023/09/10 06:29:33;;;;;;;;;;;;;;;19.32;100.00;101714.34;5015679;28;20058;-74
2023/09/10 06:31:58;;;;;;;;;;;;;;;19.45;100.00;101714.81;5017539;28;19927;-74
2023/09/10 06:34:23;;;;;;;;;;;;;;;19.48;100.00;101714.47;5032046;28;19924;-73
2023/09/10 06:36:48;;;;;;;;;;;;;;;19.59;100.00;101718.84;5015725;28;19924;-73
2023/09/10 06:39:14;;;;;;;;;;;;;;;19.70;100.00;101719.56;5031748;28;19921;-74
2023/09/10 06:41:39;;;;;;;;;;;;;;;19.75;100.00;101720.81;5007097;28;19921;-74
2023/09/10 06:44:04;;;;;;;;;;;;;;;19.82;100.00;101725.63;5029391;28;19956;-74
2023/09/10 06:46:29;;;;;;;;;;;;;;;19.91;100.00;101728.28;5019517;28;19956;-73
2023/09/10 06:48:55;;;;;;;;;;;;;;;20.00;100.00;101729.19;5006698;28;20315;-73
2023/09/10 06:51:20;;;;;;;;;;;;;;;20.08;100.00;101731.13;5032598;28;19960;-73
2023/09/10 06:53:45;;;;;;;;;;;;;;;20.15;100.00;101729.44;5019437;28;20008;-73
2023/09/10 06:56:10;;;;;;;;;;;;;;;20.22;100.00;101729.69;5019332;28;19927;-72
2023/09/10 06:58:35;;;;;;;;;;;;;;;20.33;100.00;101734.84;5027201;28;19921;-73
2023/09/10 07:01:05;;;;;;;;;;;;;;;20.40;100.00;101732.31;5015056;28;19932;-73
2023/09/10 07:03:31;;;;;;;;;;;;;;;20.52;100.00;101735.63;5042192;28;19932;-73
2023/09/10 07:05:58;;;;;;;;;;;;;;;20.59;100.00;101736.66;5008580;28;20021;-73
2023/09/10 07:08:23;;;;;;;;;;;;;;;20.68;100.00;101741.13;5025282;28;19921;-73
2023/09/10 07:10:49;;;;;;;;;;;;;;;20.76;100.00;101736.75;5007118;28;19929;-74
2023/09/10 07:13:16;;;;;;;;;;;;;;;20.89;100.00;101737.13;5015713;28;19980;-73
2023/09/10 07:15:41;;;;;;;;;;;;;;;20.96;100.00;101740.06;5003787;28;19920;-73
2023/09/10 07:18:07;;;;;;;;;;;;;;;21.05;100.00;101739.06;5013636;28;20488;-72
2023/09/10 07:20:32;;;;;;;;;;;;;;;21.14;100.00;101739.94;5008275;28;19925;-72
2023/09/10 07:22:57;;;;;;;;;;;;;;;21.27;100.00;101743.03;5021534;28;19925;-73
2023/09/10 07:25:22;;;;;;;;;;;;;;;21.32;100.00;101744.41;5028550;28;19956;-74
2023/09/10 07:27:48;;;;;;;;;;;;;;;21.33;100.00;101736.03;5014010;28;19976;-72
2023/09/10 07:30:13;;;;;;;;;;;;;;;21.41;100.00;101746.09;5013071;28;20032;-71
2023/09/10 07:32:38;;;;;;;;;;;;;;;21.43;100.00;101744.06;5023982;28;19968;-71
2023/09/10 07:35:03;;;;;;;;;;;;;;;21.47;100.00;101745.44;4998967;28;20082;-70
2023/09/10 07:37:29;;;;;;;;;;;;;;;21.59;100.00;101745.94;5011322;28;19976;-72
2023/09/10 07:39:54;;;;;;;;;;;;;;;21.73;100.00;101737.09;5011661;28;19928;-72
2023/09/10 07:42:19;;;;;;;;;;;;;;;21.82;100.00;101737.97;5011521;28;19925;-73
2023/09/10 07:44:44;;;;;;;;;;;;;;;21.97;100.00;101739.97;5028422;28;19920;-73
2023/09/10 07:47:09;;;;;;;;;;;;;;;22.07;100.00;101740.66;5027116;28;19982;-72
2023/09/10 07:49:35;;;;;;;;;;;;;;;22.19;100.00;101738.41;5027365;28;19991;-71
2023/09/10 07:52:03;;;;;;;;;;;;;;;22.31;100.00;101734.25;5015578;28;19924;-74
2023/09/10 07:54:28;;;;;;;;;;;;;;;22.42;100.00;101733.00;5012265;28;19931;-73
2023/09/10 07:56:53;;;;;;;;;;;;;;;22.61;100.00;101736.41;5013272;28;19921;-73
2023/09/10 07:59:18;;;;;;;;;;;;;;;22.80;100.00;101735.09;5048342;28;19960;-73
2023/09/10 08:01:44;;;;;;;;;;;;;;;22.93;100.00;101734.50;5031482;28;20036;-72
2023/09/10 08:04:09;;;;;;;;;;;;;;;23.04;100.00;101744.22;5027322;28;19964;-72
2023/09/10 08:06:34;;;;;;;;;;;;;;;23.08;100.00;101745.56;5025828;28;20003;-73
2023/09/10 08:09:00;;;;;;;;;;;;;;;23.31;100.00;101740.13;5013371;28;19921;-73
2023/09/10 08:11:25;;;;;;;;;;;;;;;23.42;100.00;101740.75;5029983;28;19921;-73
2023/09/10 08:13:50;;;;;;;;;;;;;;;23.55;100.00;101745.63;5033180;28;19975;-73
2023/09/10 08:16:17;;;;;;;;;;;;;;;23.56;100.00;101748.16;5015761;28;20334;-72
2023/09/10 08:18:42;;;;;;;;;;;;;;;23.76;100.00;101748.50;5031443;28;19920;-72
2023/09/10 08:21:07;;;;;;;;;;;;;;;23.93;100.00;101751.09;5025953;28;20056;-73
2023/09/10 08:23:32;;;;;;;;;;;;;;;24.04;100.00;101750.69;5034331;28;19924;-73
2023/09/10 08:25:58;;;;;;;;;;;;;;;24.11;100.00;101751.59;5017862;28;19963;-73
2023/09/10 08:28:23;;;;;;;;;;;;;;;24.27;100.00;101750.56;5015087;28;19960;-72
2023/09/10 08:30:48;;;;;;;;;;;;;;;24.25;100.00;101744.44;5016592;28;19956;-72
2023/09/10 08:33:13;;;;;;;;;;;;;;;24.32;100.00;101738.19;5027772;28;20027;-72
2023/09/10 08:35:48;;;;;;;;;;;;;;;24.38;100.00;101735.53;5032830;28;19956;-73
2023/09/10 08:38:14;;;;;;;;;;;;;;;24.50;100.00;101730.41;5009348;28;20036;-75
2023/09/10 08:40:42;;;;;;;;;;;;;;;24.64;100.00;101727.84;5031883;28;19963;-71
2023/09/10 08:43:10;;;;;;;;;;;;;;;24.75;100.00;101732.03;5011708;28;19928;-71
2023/09/10 08:45:35;;;;;;;;;;;;;;;24.79;100.00;101727.84;5010115;28;19936;-71
2023/09/10 08:48:00;;;;;;;;;;;;;;;24.95;100.00;101729.53;5031732;28;20117;-73
2023/09/10 08:50:26;;;;;;;;;;;;;;;25.12;100.00;101722.72;5000975;28;19921;-73
2023/09/10 08:52:51;;;;;;;;;;;;;;;25.22;100.00;101729.81;5029532;28;19943;-71
2023/09/10 08:55:16;;;;;;;;;;;;;;;25.38;100.00;101731.44;5034113;28;20015;-73
2023/09/10 08:57:42;;;;;;;;;;;;;;;25.46;100.00;101731.31;5032478;28;20212;-73
2023/09/10 09:00:12;;;;;;;;;;;;;;;25.56;100.00;101736.47;5003002;28;19925;-73
2023/09/10 09:02:37;;;;;;;;;;;;;;;25.71;100.00;101734.53;5018982;28;19927;-73
2023/09/10 09:05:03;;;;;;;;;;;;;;;25.76;100.00;101731.16;5052722;28;19925;-73
2023/09/10 09:07:28;;;;;;;;;;;;;;;25.88;100.00;101731.47;5034612;28;20301;-73
2023/09/10 09:09:54;;;;;;;;;;;;;;;25.90;100.00;101724.72;5017317;28;19929;-72
2023/09/10 09:12:19;;;;;;;;;;;;;;;25.97;100.00;101723.91;5022015;28;20283;-72
2023/09/10 09:14:45;;;;;;;;;;;;;;;26.02;100.00;101726.91;5017177;28;20023;-73
2023/09/10 09:17:11;;;;;;;;;;;;;;;26.16;100.00;101726.00;5016693;28;20466;-73
2023/09/10 09:19:36;;;;;;;;;;;;;;;26.41;100.00;101724.63;5017661;28;19925;-73
2023/09/10 09:22:02;;;;;;;;;;;;;;;26.55;100.00;101718.16;5038419;28;19920;-72
2023/09/10 09:24:27;;;;;;;;;;;;;;;26.63;100.00;101719.88;5030322;28;20283;-73
2023/09/10 09:26:52;;;;;;;;;;;;;;;26.84;100.00;101721.69;5028434;28;20027;-73
2023/09/10 09:29:18;;;;;;;;;;;;;;;26.88;100.00;101717.41;5031037;28;19924;-72
2023/09/10 09:31:43;;;;;;;;;;;;;;;27.03;100.00;101714.50;5014429;28;19971;-73
2023/09/10 09:34:09;;;;;;;;;;;;;;;27.30;100.00;101713.72;5015332;28;20476;-74
2023/09/10 09:36:36;;;;;;;;;;;;;;;27.44;100.00;101717.31;5030988;28;20457;-73
2023/09/10 09:39:07;;;;;;;;;;;;;;;27.55;100.00;101711.19;5016393;28;20054;-74
2023/09/10 09:41:33;;;;;;;;;;;;;;;27.61;100.00;101713.09;5012544;28;20384;-72
2023/09/10 09:43:58;;;;;;;;;;;;;;;27.82;100.00;101713.94;5017176;28;20460;-74
2023/09/10 09:46:23;;;;;;;;;;;;;;;28.08;100.00;101709.44;5030764;28;20027;-74
2023/09/10 09:48:49;;;;;;;;;;;;;;;28.09;100.00;101708.38;5015322;28;19966;-73
2023/09/10 09:51:14;;;;;;;;;;;;;;;28.24;100.00;101709.00;5030906;28;19924;-73
2023/09/10 09:53:39;;;;;;;;;;;;;;;28.52;100.00;101709.75;5030448;28;19924;-74
2023/09/10 09:56:05;;;;;;;;;;;;;;;28.65;100.00;101697.78;5029736;28;20342;-72
2023/09/10 09:58:30;;;;;;;;;;;;;;;28.71;100.00;101697.78;5031322;28;20655;-73
2023/09/10 10:00:56;;;;;;;;;;;;;;;28.99;100.00;101699.34;5000524;28;19963;-73
2023/09/10 10:03:21;;;;;;;;;;;;;;;29.14;100.00;101696.25;5031933;28;19920;-74
2023/09/10 10:05:53;;;;;;;;;;;;;;;29.23;98.09;101694.09;5031296;28;19918;-73
2023/09/10 10:08:18;;;;;;;;;;;;;;;29.19;100.00;101688.13;5031706;28;19971;-72
2023/09/10 10:10:47;;;;;;;;;;;;;;;29.16;97.51;101691.34;5032457;28;20461;-73
2023/09/10 10:13:14;;;;;;;;;;;;;;;29.19;100.00;101682.59;5029285;28;19920;-73
2023/09/10 10:15:40;;;;;;;;;;;;;;;29.26;100.00;101684.47;5016118;28;19924;-73
2023/09/10 10:18:05;;;;;;;;;;;;;;;29.40;100.00;101685.25;5011763;28;20182;-73
2023/09/10 10:20:30;;;;;;;;;;;;;;;29.64;100.00;101680.81;5013638;28;19924;-73
2023/09/10 10:22:56;;;;;;;;;;;;;;;29.73;98.69;101660.03;5029323;28;19925;-74
2023/09/10 10:25:21;;;;;;;;;;;;;;;30.08;99.62;101686.31;5015653;28;20027;-74
2023/09/10 10:27:46;;;;;;;;;;;;;;;30.07;92.45;101682.72;5017290;28;19917;-72
2023/09/10 10:30:12;;;;;;;;;;;;;;;29.96;97.98;101683.44;5025529;28;19925;-73
2023/09/10 10:32:38;;;;;;;;;;;;;;;30.10;90.01;101672.25;5029082;28;19920;-73
2023/09/10 10:35:06;;;;;;;;;;;;;;;30.33;90.64;101677.06;5015038;28;19921;-73
2023/09/10 10:37:38;;;;;;;;;;;;;;;30.45;85.48;101672.47;5016560;28;20022;-73
2023/09/10 10:40:25;;;;;;;;;;;;;;;30.60;83.61;101665.69;5026549;28;20380;-74
2023/09/10 10:43:00;;;;;;;;;;;;;;;30.95;89.64;101670.50;5015363;28;19920;-74
2023/09/10 10:45:25;;;;;;;;;;;;;;;30.86;77.52;101672.78;5022393;28;19959;-72
2023/09/10 10:47:50;;;;;;;;;;;;;;;31.15;86.23;101669.38;5015586;28;20004;-73
2023/09/10 10:50:18;;;;;;;;;;;;;;;31.47;73.74;101664.38;5031725;28;20007;-73
2023/09/10 10:52:44;;;;;;;;;;;;;;;31.62;70.98;101674.13;5027995;28;20505;-73
2023/09/10 10:55:10;;;;;;;;;;;;;;;31.96;69.01;101671.63;5014720;28;19924;-73
2023/09/10 10:57:35;;;;;;;;;;;;;;;32.20;75.71;101672.41;5028286;28;19976;-72
2023/09/10 11:00:01;;;;;;;;;;;;;;;32.33;66.93;101662.13;5030797;28;20397;-73
2023/09/10 11:02:27;;;;;;;;;;;;;;;32.04;63.66;101664.84;5026921;28;20314;-72
2023/09/10 11:04:55;;;;;;;;;;;;;;;32.04;64.34;101664.84;5013576;28;19927;-73
2023/09/10 11:07:22;;;;;;;;;;;;;;;32.04;62.37;101656.50;5015924;28;20433;-73
2023/09/10 11:09:47;;;;;;;;;;;;;;;32.19;73.05;101659.59;4955685;28;1749280;-73
2023/09/10 11:12:13;;;;;;;;;;;;;;;32.33;57.96;101657.41;5016918;28;19920;-74
2023/09/10 11:14:57;;;;;;;;;;;;;;;32.76;57.49;101652.41;5030350;28;19928;-73
2023/09/10 11:17:24;;;;;;;;;;;;;;;33.34;57.69;101646.75;5032739;28;19920;-73
2023/09/10 11:19:49;;;;;;;;;;;;;;;33.82;63.18;101649.13;5029012;28;19952;-74
2023/09/10 11:22:14;;;;;;;;;;;;;;;34.53;54.35;101646.47;5033806;28;20027;-74
2023/09/10 11:24:39;;;;;;;;;;;;;;;34.24;53.54;101634.69;5028595;28;19925;-73
2023/09/10 11:27:23;;;;;;;;;;;;;;;33.58;53.66;101652.16;5030712;28;20369;-72
2023/09/10 11:30:08;;;;;;;;;;;;;;;33.84;55.69;101649.72;5029279;28;19971;-74
2023/09/10 11:32:33;;;;;;;;;;;;;;;34.23;54.88;101641.38;5032334;28;20453;-74
2023/09/10 11:35:17;;;;;;;;;;;;;;;34.71;52.86;101641.63;5017414;28;20193;-73
2023/09/10 11:37:46;;;;;;;;;;;;;;;34.38;46.83;101640.69;5034165;28;20015;-73
2023/09/10 11:40:12;;;;;;;;;;;;;;;34.54;46.94;101637.00;5030775;28;20070;-74
2023/09/10 11:42:37;;;;;;;;;;;;;;;34.80;45.94;101642.81;5018975;28;19921;-73
2023/09/10 11:45:03;;;;;;;;;;;;;;;35.40;46.46;101639.16;5029188;28;20092;-75
2023/09/10 11:47:28;;;;;;;;;;;;;;;35.76;43.44;101650.56;5048368;28;20414;-73
2023/09/10 11:50:00;;;;;;;;;;;;;;;36.24;44.52;101641.31;5035291;28;19935;-74
2023/09/10 11:52:25;;;;;;;;;;;;;;;36.86;41.87;101638.69;5032940;28;21239;-73
2023/09/10 11:54:51;;;;;;;;;;;;;;;37.98;40.58;101638.84;5031802;28;19920;-75
2023/09/10 11:57:17;;;;;;;;;;;;;;;38.75;37.62;101637.56;5002019;28;19927;-74
2023/09/10 11:59:43;;;;;;;;;;;;;;;37.98;36.30;101638.00;5030366;28;19921;-74
2023/09/10 12:02:08;;;;;;;;;;;;;;;37.96;38.14;101636.34;5028843;28;19916;-74
2023/09/10 12:04:33;;;;;;;;;;;;;;;36.62;40.85;101639.22;5047609;28;19920;-73
2023/09/10 12:07:00;;;;;;;;;;;;;;;35.94;42.16;101637.25;5034455;28;19924;-74
2023/09/10 12:09:31;;;;;;;;;;;;;;;36.82;39.19;101638.38;5034599;28;19960;-74
2023/09/10 12:11:57;;;;;;;;;;;;;;;36.63;41.04;101627.72;5011946;28;20366;-74
2023/09/10 12:14:23;;;;;;;;;;;;;;;36.59;41.44;101629.41;5033118;28;20103;-74
2023/09/10 12:16:48;;;;;;;;;;;;;;;37.03;40.38;101624.44;5029333;28;20154;-74
2023/09/10 12:19:13;;;;;;;;;;;;;;;38.30;39.71;101617.94;5022097;28;19928;-74
2023/09/10 12:21:42;;;;;;;;;;;;;;;39.56;35.72;101625.91;5031983;28;20712;-74